sensor_id;sensor_type;location;lat;lon;timestamp;temperature;humidity
12632;DHT22;6381;45.748;12.106;2022-09-09T00:01:27;22.50;99.90
12632;DHT22;6381;45.748;12.106;2022-09-09T00:04:05;22.50;99.90
12632;DHT22;6381;45.748;12.106;2022-09-09T00:06:45;22.30;99.90
12632;DHT22;6381;45.748;12.106;2022-09-09T00:09:17;22.20;99.90
12632;DHT22;6381;45.748;12.106;2022-09-09T00:11:50;22.10;99.90
12632;DHT22;6381;45.748;12.106;2022-09-09T00:14:26;22.10;99.90
12632;DHT22;6381;45.748;12.106;2022-09-09T00:17:02;22.10;99.90
12632;DHT22;6381;45.748;12.106;2022-09-09T00:19:39;22.10;99.90
12632;DHT22;6381;45.748;12.106;2022-09-09T00:22:16;22.10;99.90
12632;DHT22;6381;45.748;12.106;2022-09-09T00:24:48;22.10;99.90
12632;DHT22;6381;45.748;12.106;2022-09-09T00:27:26;22.10;99.90
12632;DHT22;6381;45.748;12.106;2022-09-09T00:30:12;22.00;99.90
12632;DHT22;6381;45.748;12.106;2022-09-09T00:32:41;22.00;99.90
12632;DHT22;6381;45.748;12.106;2022-09-09T00:35:17;22.00;99.90
12632;DHT22;6381;45.748;12.106;2022-09-09T00:37:48;22.00;99.90
12632;DHT22;6381;45.748;12.106;2022-09-09T00:40:24;22.00;99.90
12632;DHT22;6381;45.748;12.106;2022-09-09T00:43:09;21.90;99.90
12632;DHT22;6381;45.748;12.106;2022-09-09T00:46:05;21.90;99.90
12632;DHT22;6381;45.748;12.106;2022-09-09T00:48:47;21.90;99.90
12632;DHT22;6381;45.748;12.106;2022-09-09T00:51:24;21.70;99.90
12632;DHT22;6381;45.748;12.106;2022-09-09T00:54:08;21.90;99.90
12632;DHT22;6381;45.748;12.106;2022-09-09T00:56:47;21.90;99.90
12632;DHT22;6381;45.748;12.106;2022-09-09T00:59:28;21.80;99.90
12632;DHT22;6381;45.748;12.106;2022-09-09T01:02:00;21.80;99.90
12632;DHT22;6381;45.748;12.106;2022-09-09T01:04:33;21.90;99.90
12632;DHT22;6381;45.748;12.106;2022-09-09T01:07:10;21.90;99.90
12632;DHT22;6381;45.748;12.106;2022-09-09T01:09:52;21.80;99.90
12632;DHT22;6381;45.748;12.106;2022-09-09T01:12:34;21.70;99.90
12632;DHT22;6381;45.748;12.106;2022-09-09T01:15:12;21.80;99.90
12632;DHT22;6381;45.748;12.106;2022-09-09T01:17:58;21.60;99.90
12632;DHT22;6381;45.748;12.106;2022-09-09T01:20:37;21.70;99.90
12632;DHT22;6381;45.748;12.106;2022-09-09T01:26:28;21.80;99.90
12632;DHT22;6381;45.748;12.106;2022-09-09T01:29:02;21.80;99.90
12632;DHT22;6381;45.748;12.106;2022-09-09T01:31:40;21.80;99.90
12632;DHT22;6381;45.748;12.106;2022-09-09T01:34:11;21.80;99.90
12632;DHT22;6381;45.748;12.106;2022-09-09T01:36:44;21.80;99.90
12632;DHT22;6381;45.748;12.106;2022-09-09T01:39:14;21.80;99.90
12632;DHT22;6381;45.748;12.106;2022-09-09T01:41:46;21.90;99.90
12632;DHT22;6381;45.748;12.106;2022-09-09T01:44:19;21.80;99.90
12632;DHT22;6381;45.748;12.106;2022-09-09T01:46:48;21.70;99.90
12632;DHT22;6381;45.748;12.106;2022-09-09T01:49:20;21.70;99.90
12632;DHT22;6381;45.748;12.106;2022-09-09T01:51:52;21.80;99.90
12632;DHT22;6381;45.748;12.106;2022-09-09T01:54:29;21.90;99.90
12632;DHT22;6381;45.748;12.106;2022-09-09T01:57:10;21.80;99.90
12632;DHT22;6381;45.748;12.106;2022-09-09T01:59:54;21.90;99.90
12632;DHT22;6381;45.748;12.106;2022-09-09T02:02:32;21.90;99.90
12632;DHT22;6381;45.748;12.106;2022-09-09T02:05:17;21.70;99.90
12632;DHT22;6381;45.748;12.106;2022-09-09T02:07:56;21.70;99.90
12632;DHT22;6381;45.748;12.106;2022-09-09T02:10:40;21.80;99.90
12632;DHT22;6381;45.748;12.106;2022-09-09T02:13:20;21.70;99.90
12632;DHT22;6381;45.748;12.106;2022-09-09T02:15:55;21.70;99.90
12632;DHT22;6381;45.748;12.106;2022-09-09T02:18:28;21.70;99.90
12632;DHT22;6381;45.748;12.106;2022-09-09T02:20:59;21.60;99.90
12632;DHT22;6381;45.748;12.106;2022-09-09T02:23:28;21.50;99.90
12632;DHT22;6381;45.748;12.106;2022-09-09T02:25:59;21.50;99.90
12632;DHT22;6381;45.748;12.106;2022-09-09T02:28:32;21.50;99.90
12632;DHT22;6381;45.748;12.106;2022-09-09T02:31:01;21.60;99.90
12632;DHT22;6381;45.748;12.106;2022-09-09T02:33:41;21.70;99.90
12632;DHT22;6381;45.748;12.106;2022-09-09T02:36:12;21.80;99.90
12632;DHT22;6381;45.748;12.106;2022-09-09T02:38:46;21.90;99.90
12632;DHT22;6381;45.748;12.106;2022-09-09T02:41:28;21.80;99.90
12632;DHT22;6381;45.748;12.106;2022-09-09T02:44:01;21.60;99.90
12632;DHT22;6381;45.748;12.106;2022-09-09T02:46:49;21.60;99.90
12632;DHT22;6381;45.748;12.106;2022-09-09T02:49:30;21.70;99.90
12632;DHT22;6381;45.748;12.106;2022-09-09T02:52:06;21.70;99.90
12632;DHT22;6381;45.748;12.106;2022-09-09T02:54:38;21.50;99.90
12632;DHT22;6381;45.748;12.106;2022-09-09T02:57:13;21.40;99.90
12632;DHT22;6381;45.748;12.106;2022-09-09T02:59:48;21.60;99.90
12632;DHT22;6381;45.748;12.106;2022-09-09T03:02:19;21.70;99.90
12632;DHT22;6381;45.748;12.106;2022-09-09T03:04:53;21.80;99.90
12632;DHT22;6381;45.748;12.106;2022-09-09T03:07:22;21.90;99.90
12632;DHT22;6381;45.748;12.106;2022-09-09T03:09:52;21.90;99.90
12632;DHT22;6381;45.748;12.106;2022-09-09T03:12:25;21.90;99.90
12632;DHT22;6381;45.748;12.106;2022-09-09T03:14:55;21.90;99.90
12632;DHT22;6381;45.748;12.106;2022-09-09T03:17:24;21.80;99.90
12632;DHT22;6381;45.748;12.106;2022-09-09T03:19:57;21.80;99.90
12632;DHT22;6381;45.748;12.106;2022-09-09T03:22:26;21.80;99.90
12632;DHT22;6381;45.748;12.106;2022-09-09T03:24:59;21.60;99.90
12632;DHT22;6381;45.748;12.106;2022-09-09T03:27:29;21.70;99.90
12632;DHT22;6381;45.748;12.106;2022-09-09T03:30:00;21.80;99.90
12632;DHT22;6381;45.748;12.106;2022-09-09T03:32:30;21.70;99.90
12632;DHT22;6381;45.748;12.106;2022-09-09T03:34:59;21.80;99.90
12632;DHT22;6381;45.748;12.106;2022-09-09T03:37:28;21.90;99.90
12632;DHT22;6381;45.748;12.106;2022-09-09T03:39:59;21.80;99.90
12632;DHT22;6381;45.748;12.106;2022-09-09T03:42:28;21.80;99.90
12632;DHT22;6381;45.748;12.106;2022-09-09T03:45:01;21.80;99.90
12632;DHT22;6381;45.748;12.106;2022-09-09T03:47:31;21.80;99.90
12632;DHT22;6381;45.748;12.106;2022-09-09T03:50:05;21.70;99.90
12632;DHT22;6381;45.748;12.106;2022-09-09T03:52:41;21.70;99.90
12632;DHT22;6381;45.748;12.106;2022-09-09T03:55:17;21.80;99.90
12632;DHT22;6381;45.748;12.106;2022-09-09T03:57:46;21.80;99.90
12632;DHT22;6381;45.748;12.106;2022-09-09T04:00:17;21.80;99.90
12632;DHT22;6381;45.748;12.106;2022-09-09T04:02:51;21.80;99.90
12632;DHT22;6381;45.748;12.106;2022-09-09T04:05:21;21.90;99.90
12632;DHT22;6381;45.748;12.106;2022-09-09T04:07:50;21.80;99.90
12632;DHT22;6381;45.748;12.106;2022-09-09T04:10:20;21.80;99.90
12632;DHT22;6381;45.748;12.106;2022-09-09T04:12:49;21.70;99.90
12632;DHT22;6381;45.748;12.106;2022-09-09T04:15:22;21.70;99.90
12632;DHT22;6381;45.748;12.106;2022-09-09T04:17:51;21.60;99.90
12632;DHT22;6381;45.748;12.106;2022-09-09T04:20:20;21.60;99.90
12632;DHT22;6381;45.748;12.106;2022-09-09T04:22:49;21.70;99.90
12632;DHT22;6381;45.748;12.106;2022-09-09T04:25:18;21.60;99.90
12632;DHT22;6381;45.748;12.106;2022-09-09T04:27:47;21.60;99.90
12632;DHT22;6381;45.748;12.106;2022-09-09T04:30:19;21.50;99.90
12632;DHT22;6381;45.748;12.106;2022-09-09T04:32:49;21.50;99.90
12632;DHT22;6381;45.748;12.106;2022-09-09T04:35:18;21.50;99.90
12632;DHT22;6381;45.748;12.106;2022-09-09T04:37:47;21.50;99.90
12632;DHT22;6381;45.748;12.106;2022-09-09T04:40:17;21.60;99.90
12632;DHT22;6381;45.748;12.106;2022-09-09T04:42:46;21.60;99.90
12632;DHT22;6381;45.748;12.106;2022-09-09T04:45:17;21.60;99.90
12632;DHT22;6381;45.748;12.106;2022-09-09T04:47:47;21.50;99.90
12632;DHT22;6381;45.748;12.106;2022-09-09T04:50:17;21.50;99.90
12632;DHT22;6381;45.748;12.106;2022-09-09T04:52:47;21.60;99.90
12632;DHT22;6381;45.748;12.106;2022-09-09T04:55:16;21.60;99.90
12632;DHT22;6381;45.748;12.106;2022-09-09T04:57:45;21.60;99.90
12632;DHT22;6381;45.748;12.106;2022-09-09T05:00:15;21.60;99.90
12632;DHT22;6381;45.748;12.106;2022-09-09T05:02:44;21.70;99.90
12632;DHT22;6381;45.748;12.106;2022-09-09T05:05:13;21.70;99.90
12632;DHT22;6381;45.748;12.106;2022-09-09T05:07:44;21.70;99.90
12632;DHT22;6381;45.748;12.106;2022-09-09T05:10:15;21.70;99.90
12632;DHT22;6381;45.748;12.106;2022-09-09T05:12:52;21.60;99.90
12632;DHT22;6381;45.748;12.106;2022-09-09T05:15:25;21.50;99.90
12632;DHT22;6381;45.748;12.106;2022-09-09T05:17:57;21.50;99.90
12632;DHT22;6381;45.748;12.106;2022-09-09T05:20:29;21.50;99.90
12632;DHT22;6381;45.748;12.106;2022-09-09T05:22:59;21.70;99.90
12632;DHT22;6381;45.748;12.106;2022-09-09T05:25:32;21.70;99.90
12632;DHT22;6381;45.748;12.106;2022-09-09T05:28:01;21.70;99.90
12632;DHT22;6381;45.748;12.106;2022-09-09T05:30:30;21.70;99.90
12632;DHT22;6381;45.748;12.106;2022-09-09T05:33:02;21.80;99.90
12632;DHT22;6381;45.748;12.106;2022-09-09T05:35:31;21.90;99.90
12632;DHT22;6381;45.748;12.106;2022-09-09T05:38:02;21.80;99.90
12632;DHT22;6381;45.748;12.106;2022-09-09T05:40:31;21.90;99.90
12632;DHT22;6381;45.748;12.106;2022-09-09T05:43:02;21.90;99.90
12632;DHT22;6381;45.748;12.106;2022-09-09T05:45:31;21.80;99.90
12632;DHT22;6381;45.748;12.106;2022-09-09T05:48:00;21.80;99.90
12632;DHT22;6381;45.748;12.106;2022-09-09T05:50:30;21.80;99.90
12632;DHT22;6381;45.748;12.106;2022-09-09T05:52:58;21.80;99.90
12632;DHT22;6381;45.748;12.106;2022-09-09T05:55:30;21.70;99.90
12632;DHT22;6381;45.748;12.106;2022-09-09T05:57:59;21.70;99.90
12632;DHT22;6381;45.748;12.106;2022-09-09T06:00:29;21.70;99.90
12632;DHT22;6381;45.748;12.106;2022-09-09T06:02:59;21.80;99.90
12632;DHT22;6381;45.748;12.106;2022-09-09T06:05:28;21.90;99.90
12632;DHT22;6381;45.748;12.106;2022-09-09T06:07:58;21.90;99.90
12632;DHT22;6381;45.748;12.106;2022-09-09T06:10:27;22.00;99.90
12632;DHT22;6381;45.748;12.106;2022-09-09T06:12:57;22.10;99.90
12632;DHT22;6381;45.748;12.106;2022-09-09T06:15:26;22.20;99.90
12632;DHT22;6381;45.748;12.106;2022-09-09T06:17:58;22.30;99.90
12632;DHT22;6381;45.748;12.106;2022-09-09T06:20:26;22.40;99.90
12632;DHT22;6381;45.748;12.106;2022-09-09T06:22:58;22.40;99.90
12632;DHT22;6381;45.748;12.106;2022-09-09T06:25:27;22.60;99.90
12632;DHT22;6381;45.748;12.106;2022-09-09T06:27:57;22.70;99.90
12632;DHT22;6381;45.748;12.106;2022-09-09T06:30:27;22.70;99.90
12632;DHT22;6381;45.748;12.106;2022-09-09T06:32:57;22.90;99.90
12632;DHT22;6381;45.748;12.106;2022-09-09T06:35:26;22.90;99.90
12632;DHT22;6381;45.748;12.106;2022-09-09T06:37:56;22.90;99.90
12632;DHT22;6381;45.748;12.106;2022-09-09T06:40:26;22.90;99.90
12632;DHT22;6381;45.748;12.106;2022-09-09T06:42:59;23.00;99.90
12632;DHT22;6381;45.748;12.106;2022-09-09T06:45:39;23.00;99.90
12632;DHT22;6381;45.748;12.106;2022-09-09T06:48:08;22.90;99.90
12632;DHT22;6381;45.748;12.106;2022-09-09T06:50:37;22.80;99.90
12632;DHT22;6381;45.748;12.106;2022-09-09T06:53:06;22.70;99.90
12632;DHT22;6381;45.748;12.106;2022-09-09T06:55:35;22.60;99.90
12632;DHT22;6381;45.748;12.106;2022-09-09T06:58:09;22.50;99.90
12632;DHT22;6381;45.748;12.106;2022-09-09T07:00:38;22.50;99.90
12632;DHT22;6381;45.748;12.106;2022-09-09T07:03:07;22.60;99.90
12632;DHT22;6381;45.748;12.106;2022-09-09T07:05:36;22.60;99.90
12632;DHT22;6381;45.748;12.106;2022-09-09T07:08:05;22.70;99.90
12632;DHT22;6381;45.748;12.106;2022-09-09T07:10:34;22.80;99.90
12632;DHT22;6381;45.748;12.106;2022-09-09T07:13:03;23.00;99.90
12632;DHT22;6381;45.748;12.106;2022-09-09T07:15:33;23.10;99.90
12632;DHT22;6381;45.748;12.106;2022-09-09T07:18:02;23.20;99.90
12632;DHT22;6381;45.748;12.106;2022-09-09T07:20:34;23.50;99.90
12632;DHT22;6381;45.748;12.106;2022-09-09T07:23:04;23.60;99.90
12632;DHT22;6381;45.748;12.106;2022-09-09T07:25:33;23.40;99.90
12632;DHT22;6381;45.748;12.106;2022-09-09T07:28:02;23.20;99.90
12632;DHT22;6381;45.748;12.106;2022-09-09T07:30:33;23.20;99.90
12632;DHT22;6381;45.748;12.106;2022-09-09T07:33:02;23.00;99.90
12632;DHT22;6381;45.748;12.106;2022-09-09T07:35:31;23.10;99.90
12632;DHT22;6381;45.748;12.106;2022-09-09T07:38:01;23.20;99.90
12632;DHT22;6381;45.748;12.106;2022-09-09T07:40:30;23.40;99.90
12632;DHT22;6381;45.748;12.106;2022-09-09T07:42:59;23.50;99.90
12632;DHT22;6381;45.748;12.106;2022-09-09T07:45:28;23.50;99.90
12632;DHT22;6381;45.748;12.106;2022-09-09T07:48:02;23.80;99.90
12632;DHT22;6381;45.748;12.106;2022-09-09T07:50:31;23.80;99.90
12632;DHT22;6381;45.748;12.106;2022-09-09T07:53:00;23.70;99.90
12632;DHT22;6381;45.748;12.106;2022-09-09T07:55:29;23.70;99.90
12632;DHT22;6381;45.748;12.106;2022-09-09T07:57:58;23.60;99.90
12632;DHT22;6381;45.748;12.106;2022-09-09T08:00:27;23.70;99.90
12632;DHT22;6381;45.748;12.106;2022-09-09T08:02:57;23.80;99.90
12632;DHT22;6381;45.748;12.106;2022-09-09T08:05:30;24.00;99.90
12632;DHT22;6381;45.748;12.106;2022-09-09T08:08:01;24.00;99.90
12632;DHT22;6381;45.748;12.106;2022-09-09T08:10:31;23.80;99.90
12632;DHT22;6381;45.748;12.106;2022-09-09T08:13:02;23.50;99.90
12632;DHT22;6381;45.748;12.106;2022-09-09T08:15:47;23.40;99.90
12632;DHT22;6381;45.748;12.106;2022-09-09T08:18:18;23.40;99.90
12632;DHT22;6381;45.748;12.106;2022-09-09T08:20:49;23.20;99.90
12632;DHT22;6381;45.748;12.106;2022-09-09T08:23:19;23.30;99.90
12632;DHT22;6381;45.748;12.106;2022-09-09T08:25:48;23.30;99.90
12632;DHT22;6381;45.748;12.106;2022-09-09T08:28:18;23.50;99.90
12632;DHT22;6381;45.748;12.106;2022-09-09T08:30:47;23.50;99.90
12632;DHT22;6381;45.748;12.106;2022-09-09T08:33:16;23.60;99.90
12632;DHT22;6381;45.748;12.106;2022-09-09T08:35:51;23.70;99.90
12632;DHT22;6381;45.748;12.106;2022-09-09T08:38:20;23.70;99.90
12632;DHT22;6381;45.748;12.106;2022-09-09T08:40:53;23.90;99.90
12632;DHT22;6381;45.748;12.106;2022-09-09T08:43:29;24.40;99.90
12632;DHT22;6381;45.748;12.106;2022-09-09T08:46:03;24.90;99.90
12632;DHT22;6381;45.748;12.106;2022-09-09T08:48:50;24.90;99.90
12632;DHT22;6381;45.748;12.106;2022-09-09T08:51:24;24.80;99.90
12632;DHT22;6381;45.748;12.106;2022-09-09T08:53:55;24.80;99.90
12632;DHT22;6381;45.748;12.106;2022-09-09T08:56:27;24.50;99.90
12632;DHT22;6381;45.748;12.106;2022-09-09T08:59:02;24.40;99.90
12632;DHT22;6381;45.748;12.106;2022-09-09T09:01:48;24.40;99.90
12632;DHT22;6381;45.748;12.106;2022-09-09T09:04:38;24.60;99.90
12632;DHT22;6381;45.748;12.106;2022-09-09T09:07:21;24.60;99.90
12632;DHT22;6381;45.748;12.106;2022-09-09T09:10:04;24.40;99.90
12632;DHT22;6381;45.748;12.106;2022-09-09T09:13:00;24.20;99.90
12632;DHT22;6381;45.748;12.106;2022-09-09T09:15:36;24.00;99.90
12632;DHT22;6381;45.748;12.106;2022-09-09T09:18:10;23.80;99.90
12632;DHT22;6381;45.748;12.106;2022-09-09T09:20:48;23.70;99.90
12632;DHT22;6381;45.748;12.106;2022-09-09T09:23:22;23.60;99.90
12632;DHT22;6381;45.748;12.106;2022-09-09T09:25:58;23.50;99.90
12632;DHT22;6381;45.748;12.106;2022-09-09T09:28:31;23.50;99.90
12632;DHT22;6381;45.748;12.106;2022-09-09T09:31:09;23.50;99.90
12632;DHT22;6381;45.748;12.106;2022-09-09T09:33:47;23.50;99.90
12632;DHT22;6381;45.748;12.106;2022-09-09T09:36:19;23.50;99.90
12632;DHT22;6381;45.748;12.106;2022-09-09T09:38:55;23.40;99.90
12632;DHT22;6381;45.748;12.106;2022-09-09T09:41:45;23.40;99.90
12632;DHT22;6381;45.748;12.106;2022-09-09T09:44:26;23.40;99.90
12632;DHT22;6381;45.748;12.106;2022-09-09T09:47:08;23.30;99.90
12632;DHT22;6381;45.748;12.106;2022-09-09T09:49:51;23.10;99.90
12632;DHT22;6381;45.748;12.106;2022-09-09T09:52:23;23.00;99.90
12632;DHT22;6381;45.748;12.106;2022-09-09T09:54:55;23.00;99.90
12632;DHT22;6381;45.748;12.106;2022-09-09T09:57:27;22.90;99.90
12632;DHT22;6381;45.748;12.106;2022-09-09T10:00:12;23.20;99.90
12632;DHT22;6381;45.748;12.106;2022-09-09T10:02:44;23.30;99.90
12632;DHT22;6381;45.748;12.106;2022-09-09T10:05:20;24.00;99.90
12632;DHT22;6381;45.748;12.106;2022-09-09T10:08:04;24.60;99.90
12632;DHT22;6381;45.748;12.106;2022-09-09T10:10:44;24.70;99.90
12632;DHT22;6381;45.748;12.106;2022-09-09T10:13:19;25.10;99.90
12632;DHT22;6381;45.748;12.106;2022-09-09T10:15:59;25.50;99.90
12632;DHT22;6381;45.748;12.106;2022-09-09T10:18:47;25.80;99.90
12632;DHT22;6381;45.748;12.106;2022-09-09T10:21:38;25.80;99.90
12632;DHT22;6381;45.748;12.106;2022-09-09T10:24:28;26.10;99.90
12632;DHT22;6381;45.748;12.106;2022-09-09T10:27:03;26.20;99.90
12632;DHT22;6381;45.748;12.106;2022-09-09T10:29:51;26.40;99.90
12632;DHT22;6381;45.748;12.106;2022-09-09T10:32:36;26.40;99.10
12632;DHT22;6381;45.748;12.106;2022-09-09T10:35:12;26.30;99.00
12632;DHT22;6381;45.748;12.106;2022-09-09T10:40:37;26.40;98.70
12632;DHT22;6381;45.748;12.106;2022-09-09T10:43:16;26.50;98.40
12632;DHT22;6381;45.748;12.106;2022-09-09T10:45:55;26.60;98.30
12632;DHT22;6381;45.748;12.106;2022-09-09T10:48:35;26.60;98.10
12632;DHT22;6381;45.748;12.106;2022-09-09T10:51:19;27.00;98.00
12632;DHT22;6381;45.748;12.106;2022-09-09T10:54:05;26.80;97.30
12632;DHT22;6381;45.748;12.106;2022-09-09T10:56:38;26.70;97.30
12632;DHT22;6381;45.748;12.106;2022-09-09T10:59:13;27.10;97.50
12632;DHT22;6381;45.748;12.106;2022-09-09T11:01:49;27.40;97.10
12632;DHT22;6381;45.748;12.106;2022-09-09T11:04:23;27.50;96.40
12632;DHT22;6381;45.748;12.106;2022-09-09T11:06:55;27.60;96.30
12632;DHT22;6381;45.748;12.106;2022-09-09T11:09:26;27.60;95.80
12632;DHT22;6381;45.748;12.106;2022-09-09T11:11:57;27.50;96.10
12632;DHT22;6381;45.748;12.106;2022-09-09T11:14:32;27.00;95.80
12632;DHT22;6381;45.748;12.106;2022-09-09T11:17:08;27.10;96.50
12632;DHT22;6381;45.748;12.106;2022-09-09T11:19:40;27.30;96.60
12632;DHT22;6381;45.748;12.106;2022-09-09T11:22:18;27.40;95.80
12632;DHT22;6381;45.748;12.106;2022-09-09T11:24:54;27.70;95.40
12632;DHT22;6381;45.748;12.106;2022-09-09T11:27:29;28.00;94.20
12632;DHT22;6381;45.748;12.106;2022-09-09T11:30:21;28.50;94.30
12632;DHT22;6381;45.748;12.106;2022-09-09T11:33:31;28.20;94.10
12632;DHT22;6381;45.748;12.106;2022-09-09T11:36:24;27.50;94.80
12632;DHT22;6381;45.748;12.106;2022-09-09T11:39:01;26.90;95.20
12632;DHT22;6381;45.748;12.106;2022-09-09T11:41:36;26.40;96.00
12632;DHT22;6381;45.748;12.106;2022-09-09T11:44:10;26.20;96.10
12632;DHT22;6381;45.748;12.106;2022-09-09T11:46:41;26.20;96.50
12632;DHT22;6381;45.748;12.106;2022-09-09T11:49:26;26.40;96.60
12632;DHT22;6381;45.748;12.106;2022-09-09T11:51:55;26.40;96.40
12632;DHT22;6381;45.748;12.106;2022-09-09T11:54:29;26.60;96.80
12632;DHT22;6381;45.748;12.106;2022-09-09T11:56:58;27.70;96.00
12632;DHT22;6381;45.748;12.106;2022-09-09T11:59:29;28.60;94.90
12632;DHT22;6381;45.748;12.106;2022-09-09T12:02:00;29.00;93.90
12632;DHT22;6381;45.748;12.106;2022-09-09T12:04:37;28.00;93.00
12632;DHT22;6381;45.748;12.106;2022-09-09T12:07:25;27.70;94.50
12632;DHT22;6381;45.748;12.106;2022-09-09T12:09:59;29.00;93.40
12632;DHT22;6381;45.748;12.106;2022-09-09T12:12:31;29.20;91.90
12632;DHT22;6381;45.748;12.106;2022-09-09T12:15:23;28.60;91.80
12632;DHT22;6381;45.748;12.106;2022-09-09T12:17:55;27.40;93.00
12632;DHT22;6381;45.748;12.106;2022-09-09T12:20:34;26.30;94.60
12632;DHT22;6381;45.748;12.106;2022-09-09T12:23:22;26.20;95.60
12632;DHT22;6381;45.748;12.106;2022-09-09T12:26:04;26.00;96.10
12632;DHT22;6381;45.748;12.106;2022-09-09T12:28:55;25.80;97.10
12632;DHT22;6381;45.748;12.106;2022-09-09T12:31:33;25.60;97.40
12632;DHT22;6381;45.748;12.106;2022-09-09T12:34:10;25.80;98.20
12632;DHT22;6381;45.748;12.106;2022-09-09T12:36:40;25.80;98.20
12632;DHT22;6381;45.748;12.106;2022-09-09T12:39:16;25.50;97.50
12632;DHT22;6381;45.748;12.106;2022-09-09T12:41:53;25.30;97.70
12632;DHT22;6381;45.748;12.106;2022-09-09T12:44:25;25.20;98.00
12632;DHT22;6381;45.748;12.106;2022-09-09T12:46:56;25.10;98.20
12632;DHT22;6381;45.748;12.106;2022-09-09T12:49:32;25.20;98.10
12632;DHT22;6381;45.748;12.106;2022-09-09T12:52:06;25.10;98.90
12632;DHT22;6381;45.748;12.106;2022-09-09T12:54:37;25.00;98.60
12632;DHT22;6381;45.748;12.106;2022-09-09T12:57:12;24.80;98.50
12632;DHT22;6381;45.748;12.106;2022-09-09T12:59:43;24.80;98.60
12632;DHT22;6381;45.748;12.106;2022-09-09T13:02:21;24.70;98.90
12632;DHT22;6381;45.748;12.106;2022-09-09T13:04:53;24.80;99.20
12632;DHT22;6381;45.748;12.106;2022-09-09T13:07:23;24.60;99.90
12632;DHT22;6381;45.748;12.106;2022-09-09T13:09:52;24.60;99.90
12632;DHT22;6381;45.748;12.106;2022-09-09T13:12:22;24.60;99.90
12632;DHT22;6381;45.748;12.106;2022-09-09T13:14:53;24.60;99.90
12632;DHT22;6381;45.748;12.106;2022-09-09T13:17:24;24.60;99.90
12632;DHT22;6381;45.748;12.106;2022-09-09T13:19:57;24.60;99.90
12632;DHT22;6381;45.748;12.106;2022-09-09T13:22:30;24.60;99.90
12632;DHT22;6381;45.748;12.106;2022-09-09T13:25:06;24.50;99.90
12632;DHT22;6381;45.748;12.106;2022-09-09T13:27:58;24.60;99.90
12632;DHT22;6381;45.748;12.106;2022-09-09T13:30:30;24.60;99.90
12632;DHT22;6381;45.748;12.106;2022-09-09T13:33:05;24.50;99.90
12632;DHT22;6381;45.748;12.106;2022-09-09T13:35:46;24.60;99.90
12632;DHT22;6381;45.748;12.106;2022-09-09T13:38:17;24.50;99.90
12632;DHT22;6381;45.748;12.106;2022-09-09T13:40:53;24.30;99.90
12632;DHT22;6381;45.748;12.106;2022-09-09T13:43:26;23.00;99.90
12632;DHT22;6381;45.748;12.106;2022-09-09T13:45:57;22.50;99.90
12632;DHT22;6381;45.748;12.106;2022-09-09T13:48:27;22.00;99.90
12632;DHT22;6381;45.748;12.106;2022-09-09T13:51:01;21.90;99.90
12632;DHT22;6381;45.748;12.106;2022-09-09T13:53:30;22.00;99.90
12632;DHT22;6381;45.748;12.106;2022-09-09T13:56:00;22.00;99.90
12632;DHT22;6381;45.748;12.106;2022-09-09T13:58:29;22.60;99.90
12632;DHT22;6381;45.748;12.106;2022-09-09T14:00:58;22.50;99.90
12632;DHT22;6381;45.748;12.106;2022-09-09T14:03:27;22.60;99.90
12632;DHT22;6381;45.748;12.106;2022-09-09T14:05:56;22.80;99.90
12632;DHT22;6381;45.748;12.106;2022-09-09T14:08:27;22.70;99.90
12632;DHT22;6381;45.748;12.106;2022-09-09T14:11:05;22.70;99.90
12632;DHT22;6381;45.748;12.106;2022-09-09T14:13:34;23.00;99.90
12632;DHT22;6381;45.748;12.106;2022-09-09T14:16:05;23.20;99.90
12632;DHT22;6381;45.748;12.106;2022-09-09T14:18:34;23.40;99.90
12632;DHT22;6381;45.748;12.106;2022-09-09T14:21:03;23.60;99.90
12632;DHT22;6381;45.748;12.106;2022-09-09T14:23:33;23.60;99.90
12632;DHT22;6381;45.748;12.106;2022-09-09T14:26:02;24.00;99.90
12632;DHT22;6381;45.748;12.106;2022-09-09T14:28:31;23.90;99.90
12632;DHT22;6381;45.748;12.106;2022-09-09T14:31:20;24.00;99.90
12632;DHT22;6381;45.748;12.106;2022-09-09T14:33:49;24.50;99.90
12632;DHT22;6381;45.748;12.106;2022-09-09T14:36:20;24.60;99.90
12632;DHT22;6381;45.748;12.106;2022-09-09T14:38:53;24.70;99.90
12632;DHT22;6381;45.748;12.106;2022-09-09T14:41:21;24.60;99.90
12632;DHT22;6381;45.748;12.106;2022-09-09T14:43:51;25.10;99.90
12632;DHT22;6381;45.748;12.106;2022-09-09T14:46:22;26.70;99.90
12632;DHT22;6381;45.748;12.106;2022-09-09T14:48:51;28.80;99.90
12632;DHT22;6381;45.748;12.106;2022-09-09T14:51:26;29.20;98.30
12632;DHT22;6381;45.748;12.106;2022-09-09T14:53:58;29.60;96.70
12632;DHT22;6381;45.748;12.106;2022-09-09T14:56:28;28.30;96.60
12632;DHT22;6381;45.748;12.106;2022-09-09T14:58:58;27.20;98.80
12632;DHT22;6381;45.748;12.106;2022-09-09T15:01:30;27.40;99.90
12632;DHT22;6381;45.748;12.106;2022-09-09T15:04:01;26.90;99.90
12632;DHT22;6381;45.748;12.106;2022-09-09T15:06:31;26.60;99.90
12632;DHT22;6381;45.748;12.106;2022-09-09T15:09:01;26.10;99.90
12632;DHT22;6381;45.748;12.106;2022-09-09T15:11:34;25.70;99.90
12632;DHT22;6381;45.748;12.106;2022-09-09T15:14:05;25.50;99.90
12632;DHT22;6381;45.748;12.106;2022-09-09T15:16:35;26.80;99.90
12632;DHT22;6381;45.748;12.106;2022-09-09T15:19:04;28.40;99.90
12632;DHT22;6381;45.748;12.106;2022-09-09T15:21:34;29.20;96.90
12632;DHT22;6381;45.748;12.106;2022-09-09T15:24:06;29.70;95.80
12632;DHT22;6381;45.748;12.106;2022-09-09T15:26:37;28.50;95.60
12632;DHT22;6381;45.748;12.106;2022-09-09T15:29:07;29.10;93.70
12632;DHT22;6381;45.748;12.106;2022-09-09T15:31:36;29.30;93.60
12632;DHT22;6381;45.748;12.106;2022-09-09T15:34:06;29.60;91.80
12632;DHT22;6381;45.748;12.106;2022-09-09T15:36:37;29.50;91.20
12632;DHT22;6381;45.748;12.106;2022-09-09T15:39:09;30.00;91.20
12632;DHT22;6381;45.748;12.106;2022-09-09T15:41:40;30.10;90.50
12632;DHT22;6381;45.748;12.106;2022-09-09T15:44:10;30.40;89.30
12632;DHT22;6381;45.748;12.106;2022-09-09T15:46:40;30.20;88.50
12632;DHT22;6381;45.748;12.106;2022-09-09T15:49:12;30.30;88.50
12632;DHT22;6381;45.748;12.106;2022-09-09T15:51:43;30.30;87.00
12632;DHT22;6381;45.748;12.106;2022-09-09T15:54:15;30.10;86.10
12632;DHT22;6381;45.748;12.106;2022-09-09T15:56:46;29.90;86.40
12632;DHT22;6381;45.748;12.106;2022-09-09T15:59:16;29.60;85.90
12632;DHT22;6381;45.748;12.106;2022-09-09T16:01:45;29.70;87.20
12632;DHT22;6381;45.748;12.106;2022-09-09T16:04:14;29.90;85.30
12632;DHT22;6381;45.748;12.106;2022-09-09T16:06:51;30.30;84.00
12632;DHT22;6381;45.748;12.106;2022-09-09T16:09:21;30.30;83.80
12632;DHT22;6381;45.748;12.106;2022-09-09T16:11:50;30.60;83.20
12632;DHT22;6381;45.748;12.106;2022-09-09T16:14:20;30.30;83.20
12632;DHT22;6381;45.748;12.106;2022-09-09T16:16:49;30.30;83.30